createdAt,value
2023-04-12T00:00:08.842Z,50.877270
2023-04-12T00:01:08.833Z,50.877319
2023-04-12T00:02:08.921Z,50.877296
2023-04-12T00:03:08.875Z,50.877224
2023-04-12T00:04:08.882Z,50.877258
2023-04-12T00:05:08.823Z,50.877247
2023-04-12T00:06:08.814Z,50.877319
2023-04-12T00:07:08.762Z,50.877346
2023-04-12T00:08:09.767Z,50.877419
2023-04-12T00:09:08.795Z,50.877453
2023-04-12T00:10:08.794Z,50.877483
2023-04-12T00:11:08.721Z,50.877426
2023-04-12T00:12:08.706Z,50.877350
2023-04-12T00:13:08.718Z,50.877350
2023-04-12T00:14:08.719Z,50.877296
2023-04-12T00:15:09.737Z,50.877419
2023-04-12T00:16:08.737Z,50.877415
2023-04-12T00:17:08.696Z,50.877296
2023-04-12T00:18:08.665Z,50.877296
2023-04-12T00:19:08.657Z,50.877296
2023-04-12T00:20:08.694Z,50.877296
2023-04-12T00:21:08.637Z,50.877548
2023-04-12T00:22:08.637Z,50.877407
2023-04-12T00:23:08.647Z,50.877289
2023-04-12T00:24:08.625Z,50.877132
2023-04-12T00:25:08.636Z,50.876995
2023-04-12T00:26:08.595Z,50.877022
2023-04-12T00:27:08.632Z,50.877022
2023-04-12T00:28:08.597Z,50.876991
2023-04-12T00:29:08.569Z,50.876926
2023-04-12T00:30:08.550Z,50.876900
2023-04-12T00:31:08.567Z,50.876892
2023-04-12T00:32:08.548Z,50.876957
2023-04-12T00:33:08.543Z,50.876911
2023-04-12T00:34:08.492Z,50.876854
2023-04-12T00:35:08.499Z,50.876873
2023-04-12T00:36:08.550Z,50.876896
2023-04-12T00:37:08.462Z,50.876968
2023-04-12T00:38:09.482Z,50.876999
2023-04-12T00:39:08.467Z,50.877041
2023-04-12T00:40:08.475Z,50.876980
2023-04-12T00:41:08.467Z,50.876942
2023-04-12T00:42:08.436Z,50.876965
2023-04-12T00:43:08.454Z,50.877052
2023-04-12T00:44:08.394Z,50.877094
2023-04-12T00:45:08.390Z,50.877018
2023-04-12T00:46:08.467Z,50.876995
2023-04-12T00:47:08.608Z,50.877048
2023-04-12T00:48:08.364Z,50.877071
2023-04-12T00:49:08.360Z,50.877098
2023-04-12T00:50:08.360Z,50.877010
2023-04-12T00:51:08.410Z,50.877090
2023-04-12T00:52:08.351Z,50.877232
2023-04-12T00:53:08.353Z,50.877232
2023-04-12T00:54:08.310Z,50.877232
2023-04-12T00:55:08.303Z,50.877232
2023-04-12T00:56:08.308Z,50.877232
2023-04-12T00:57:08.285Z,50.876923
2023-04-12T00:58:08.278Z,50.876923
2023-04-12T00:59:08.299Z,50.876923
2023-04-12T01:00:08.277Z,50.876923
2023-04-12T01:01:08.242Z,50.876923
2023-04-12T01:02:08.305Z,50.876923
2023-04-12T01:03:08.474Z,50.876865
2023-04-12T01:04:08.230Z,50.876923
2023-04-12T01:05:08.204Z,50.876839
2023-04-12T01:06:08.181Z,50.876888
2023-04-12T01:07:08.159Z,50.876732
2023-04-12T01:08:08.209Z,50.876720
2023-04-12T01:09:08.142Z,50.876801
2023-04-12T01:10:08.139Z,50.876858
2023-04-12T01:11:08.147Z,50.876831
2023-04-12T01:12:08.133Z,50.876942
2023-04-12T01:13:08.158Z,50.877029
2023-04-12T01:14:08.193Z,50.877029
2023-04-12T01:15:08.130Z,50.877029
2023-04-12T01:16:08.188Z,50.877029
2023-04-12T01:17:08.071Z,50.877029
2023-04-12T01:18:08.069Z,50.877029
2023-04-12T01:19:08.076Z,50.877029
2023-04-12T01:20:08.062Z,50.877029
2023-04-12T01:21:08.030Z,50.877029
2023-04-12T01:22:08.021Z,50.877056
2023-04-12T01:23:08.030Z,50.877098
2023-04-12T01:24:08.026Z,50.877121
2023-04-12T01:25:08.016Z,50.877205
2023-04-12T01:26:08.077Z,50.877144
2023-04-12T01:27:08.004Z,50.877129
2023-04-12T01:28:07.996Z,50.877052
2023-04-12T01:29:07.980Z,50.877010
2023-04-12T01:30:08.000Z,50.877048
2023-04-12T01:31:08.048Z,50.877052
2023-04-12T01:32:07.965Z,50.877171
2023-04-12T01:33:08.022Z,50.877151
2023-04-12T01:34:07.905Z,50.877190
2023-04-12T01:35:07.959Z,50.877193
2023-04-12T01:36:07.937Z,50.877190
2023-04-12T01:37:07.895Z,50.877205
2023-04-12T01:38:07.895Z,50.877228
2023-04-12T01:39:07.862Z,50.877228
2023-04-12T01:40:07.841Z,50.877193
2023-04-12T01:41:07.859Z,50.877182
2023-04-12T01:42:07.929Z,50.877171
2023-04-12T01:43:07.838Z,50.877102
2023-04-12T01:44:07.808Z,50.877129
2023-04-12T01:45:07.828Z,50.877140
2023-04-12T01:46:07.841Z,50.877155
2023-04-12T01:47:07.808Z,50.877121
2023-04-12T01:48:07.841Z,50.877144
2023-04-12T01:49:07.781Z,50.877155
2023-04-12T01:50:07.783Z,50.877155
2023-04-12T01:51:07.766Z,50.877186
2023-04-12T01:52:07.797Z,50.877201
2023-04-12T01:53:07.740Z,50.877201
2023-04-12T01:54:07.740Z,50.877232
2023-04-12T01:55:07.712Z,50.877178
2023-04-12T01:56:07.718Z,50.877125
2023-04-12T01:57:07.678Z,50.877155
2023-04-12T01:58:07.783Z,50.877186
2023-04-12T01:59:08.687Z,50.877167
2023-04-12T02:00:07.684Z,50.877182
2023-04-12T02:01:07.672Z,50.877171
2023-04-12T02:02:07.766Z,50.877201
2023-04-12T02:03:08.719Z,50.877167
2023-04-12T02:04:07.689Z,50.877174
2023-04-12T02:05:07.667Z,50.877167
2023-04-12T02:06:07.619Z,50.877151
2023-04-12T02:07:07.617Z,50.877171
2023-04-12T02:08:07.580Z,50.877182
2023-04-12T02:09:08.592Z,50.877209
2023-04-12T02:10:07.592Z,50.877182
2023-04-12T02:11:07.644Z,50.877182
2023-04-12T02:12:07.744Z,50.877209
2023-04-12T02:13:07.575Z,50.877197
2023-04-12T02:14:07.523Z,50.877190
2023-04-12T02:15:07.508Z,50.877205
2023-04-12T02:16:07.545Z,50.877190
2023-04-12T02:17:07.504Z,50.877182
2023-04-12T02:18:07.541Z,50.877216
2023-04-12T02:19:07.468Z,50.877213
2023-04-12T02:20:07.520Z,50.877235
2023-04-12T02:21:07.457Z,50.877285
2023-04-12T02:22:07.496Z,50.877201
2023-04-12T02:23:07.445Z,50.877213
2023-04-12T02:24:07.436Z,50.877235
2023-04-12T02:25:07.421Z,50.877205
2023-04-12T02:26:07.428Z,50.877235
2023-04-12T02:27:07.384Z,50.877197
2023-04-12T02:28:07.448Z,50.877232
2023-04-12T02:29:07.379Z,50.877232
2023-04-12T02:30:07.392Z,50.877235
2023-04-12T02:31:07.401Z,50.877205
2023-04-12T02:32:07.375Z,50.877197
2023-04-12T02:33:07.371Z,50.877209
2023-04-12T02:34:13.509Z,50.877224
2023-04-12T02:35:07.315Z,50.877193
2023-04-12T02:36:07.361Z,50.877071
2023-04-12T02:37:07.299Z,50.877106
2023-04-12T02:38:07.290Z,50.877308
2023-04-12T02:39:07.293Z,50.877239
2023-04-12T02:40:07.269Z,50.877151
2023-04-12T02:41:07.260Z,50.877235
2023-04-12T02:42:07.296Z,50.877140
2023-04-12T02:43:07.285Z,50.877254
2023-04-12T02:44:07.376Z,50.877121
2023-04-12T02:45:07.236Z,50.877151
2023-04-12T02:46:07.307Z,50.877106
2023-04-12T02:47:07.208Z,50.877197
2023-04-12T02:48:07.244Z,50.877499
2023-04-12T02:49:07.202Z,50.877235
2023-04-12T02:50:07.159Z,50.877197
2023-04-12T02:51:07.143Z,50.877121
2023-04-12T02:52:07.135Z,50.877079
2023-04-12T02:53:07.189Z,50.877110
2023-04-12T02:54:07.155Z,50.877159
2023-04-12T02:55:07.134Z,50.877174
2023-04-12T02:56:07.128Z,50.877190
2023-04-12T02:57:07.108Z,50.877186
2023-04-12T02:58:07.082Z,50.877148
2023-04-12T02:59:07.101Z,50.877140
2023-04-12T03:00:07.135Z,50.877155
2023-04-12T03:01:07.059Z,50.877201
2023-04-12T03:02:07.115Z,50.877159
2023-04-12T03:03:07.163Z,50.877209
2023-04-12T03:04:07.111Z,50.877224
2023-04-12T03:05:07.068Z,50.877151
2023-04-12T03:06:07.014Z,50.877174
2023-04-12T03:07:07.014Z,50.877171
2023-04-12T03:08:07.062Z,50.877155
2023-04-12T03:09:06.972Z,50.877140
2023-04-12T03:10:06.986Z,50.877190
2023-04-12T03:11:07.021Z,50.877220
2023-04-12T03:12:06.995Z,50.877209
2023-04-12T03:13:06.987Z,50.877262
2023-04-12T03:14:06.965Z,50.877224
2023-04-12T03:15:06.946Z,50.877239
2023-04-12T03:16:06.961Z,50.877132
2023-04-12T03:17:06.892Z,50.876865
2023-04-12T03:18:07.025Z,50.876980
2023-04-12T03:19:06.884Z,50.877098
2023-04-12T03:20:06.902Z,50.877155
2023-04-12T03:21:06.884Z,50.877193
2023-04-12T03:22:06.884Z,50.877228
2023-04-12T03:23:06.877Z,50.877235
2023-04-12T03:24:06.846Z,50.877121
2023-04-12T03:25:06.904Z,50.877155
2023-04-12T03:26:06.829Z,50.877148
2023-04-12T03:27:06.926Z,50.877224
2023-04-12T03:28:06.804Z,50.877216
2023-04-12T03:29:07.244Z,50.877159
2023-04-12T03:30:06.794Z,50.877197
2023-04-12T03:31:06.790Z,50.877201
2023-04-12T03:32:06.760Z,50.877232
2023-04-12T03:33:06.808Z,50.877243
2023-04-12T03:34:06.760Z,50.877254
2023-04-12T03:35:06.736Z,50.877197
2023-04-12T03:36:06.853Z,50.877083
2023-04-12T03:37:06.769Z,50.877209
2023-04-12T03:38:06.736Z,50.877293
2023-04-12T03:39:06.702Z,50.877293
2023-04-12T03:40:06.705Z,50.877319
2023-04-12T03:41:06.694Z,50.877411
2023-04-12T03:42:06.683Z,50.877243
2023-04-12T03:43:06.640Z,50.877197
2023-04-12T03:44:06.646Z,50.877213
2023-04-12T03:45:06.652Z,50.877197
2023-04-12T03:46:06.681Z,50.877193
2023-04-12T03:47:06.593Z,50.877178
2023-04-12T03:48:06.655Z,50.877182
2023-04-12T03:49:06.576Z,50.877178
2023-04-12T03:50:11.675Z,50.877167
2023-04-12T03:51:08.690Z,50.877182
2023-04-12T03:52:06.561Z,50.877171
2023-04-12T03:53:06.541Z,50.877159
2023-04-12T03:54:06.569Z,50.877178
2023-04-12T03:55:06.583Z,50.877144
2023-04-12T03:56:06.559Z,50.877132
2023-04-12T03:57:06.519Z,50.877117
2023-04-12T03:58:06.536Z,50.877102
2023-04-12T03:59:06.526Z,50.877079
2023-04-12T04:00:06.540Z,50.877064
2023-04-12T04:01:06.522Z,50.877159
2023-04-12T04:02:06.523Z,50.877121
2023-04-12T04:03:06.600Z,50.877144
2023-04-12T04:04:06.639Z,50.877148
2023-04-12T04:05:06.490Z,50.877178
2023-04-12T04:06:06.451Z,50.877216
2023-04-12T04:07:06.438Z,50.877171
2023-04-12T04:08:06.422Z,50.877220
2023-04-12T04:09:06.421Z,50.877205
2023-04-12T04:10:06.419Z,50.877209
2023-04-12T04:11:08.508Z,50.877243
2023-04-12T04:12:06.382Z,50.877041
2023-04-12T04:13:06.406Z,50.877117
2023-04-12T04:14:06.374Z,50.877167
2023-04-12T04:15:06.374Z,50.877178
2023-04-12T04:16:06.377Z,50.877186
2023-04-12T04:17:06.355Z,50.877186
2023-04-12T04:18:06.335Z,50.877163
2023-04-12T04:19:06.301Z,50.877174
2023-04-12T04:20:06.295Z,50.877197
2023-04-12T04:21:06.311Z,50.877083
2023-04-12T04:22:06.323Z,50.877213
2023-04-12T04:23:06.304Z,50.877159
2023-04-12T04:24:06.258Z,50.877174
2023-04-12T04:25:06.272Z,50.877190
2023-04-12T04:26:06.254Z,50.877441
2023-04-12T04:27:06.217Z,50.877491
2023-04-12T04:28:06.232Z,50.877495
2023-04-12T04:29:06.235Z,50.877476
2023-04-12T04:30:06.210Z,50.877495
2023-04-12T04:31:06.211Z,50.877499
2023-04-12T04:32:06.329Z,50.877285
2023-04-12T04:33:06.229Z,50.877197
2023-04-12T04:34:06.171Z,50.877209
2023-04-12T04:35:06.734Z,50.877190
2023-04-12T04:36:06.203Z,50.877148
2023-04-12T04:37:06.157Z,50.877178
2023-04-12T04:38:06.130Z,50.877186
2023-04-12T04:39:06.113Z,50.877205
2023-04-12T04:40:06.123Z,50.877193
2023-04-12T04:41:06.094Z,50.877186
2023-04-12T04:42:06.108Z,50.877193
2023-04-12T04:43:07.761Z,50.877209
2023-04-12T04:44:06.053Z,50.877174
2023-04-12T04:45:06.111Z,50.877197
2023-04-12T04:46:06.191Z,50.877178
2023-04-12T04:47:06.057Z,50.877220
2023-04-12T04:48:06.028Z,50.877262
2023-04-12T04:49:06.048Z,50.877213
2023-04-12T04:50:06.017Z,50.877220
2023-04-12T04:51:06.137Z,50.877209
2023-04-12T04:52:05.988Z,50.877251
2023-04-12T04:53:06.029Z,50.877266
2023-04-12T04:54:05.995Z,50.877235
2023-04-12T04:55:07.973Z,50.877201
2023-04-12T04:56:05.987Z,50.877205
2023-04-12T04:57:05.963Z,50.877224
2023-04-12T04:58:05.944Z,50.877224
2023-04-12T04:59:05.921Z,50.877201
2023-04-12T05:00:05.931Z,50.877235
2023-04-12T05:01:05.990Z,50.877220
2023-04-12T05:02:05.926Z,50.877205
2023-04-12T05:03:05.983Z,50.877209
2023-04-12T05:04:05.980Z,50.877209
2023-04-12T05:05:05.881Z,50.877201
2023-04-12T05:06:05.834Z,50.877216
2023-04-12T05:07:05.822Z,50.877213
2023-04-12T05:08:05.856Z,50.877186
2023-04-12T05:09:05.856Z,50.877197
2023-04-12T05:10:05.816Z,50.877205
2023-04-12T05:11:05.783Z,50.877224
2023-04-12T05:12:05.797Z,50.877182
2023-04-12T05:13:05.822Z,50.877193
2023-04-12T05:14:05.808Z,50.877193
2023-04-12T05:15:13.831Z,50.877197
2023-04-12T05:16:07.765Z,50.877193
2023-04-12T05:17:06.005Z,50.877209
2023-04-12T05:18:05.865Z,50.877216
2023-04-12T05:19:05.742Z,50.877201
2023-04-12T05:20:05.716Z,50.877190
2023-04-12T05:21:05.797Z,50.877205
2023-04-12T05:22:05.693Z,50.877190
2023-04-12T05:23:05.693Z,50.877201
2023-04-12T05:24:05.663Z,50.877193
2023-04-12T05:25:05.634Z,50.877186
2023-04-12T05:26:05.679Z,50.877171
2023-04-12T05:27:05.643Z,50.877193
2023-04-12T05:28:05.625Z,50.877193
2023-04-12T05:29:05.635Z,50.877182
2023-04-12T05:30:05.644Z,50.877213
2023-04-12T05:31:05.712Z,50.877205
2023-04-12T05:32:05.585Z,50.877216
2023-04-12T05:33:05.618Z,50.877220
2023-04-12T05:34:05.555Z,50.877193
2023-04-12T05:35:05.556Z,50.877213
2023-04-12T05:36:05.716Z,50.877163
2023-04-12T05:37:05.523Z,50.877178
2023-04-12T05:38:05.589Z,50.877167
2023-04-12T05:39:05.515Z,50.877148
2023-04-12T05:40:05.537Z,50.877178
2023-04-12T05:41:05.529Z,50.877174
2023-04-12T05:42:05.490Z,50.877182
2023-04-12T05:43:05.492Z,50.877174
2023-04-12T05:44:05.505Z,50.877197
2023-04-12T05:45:05.474Z,50.877205
2023-04-12T05:46:05.499Z,50.877220
2023-04-12T05:47:05.436Z,50.877178
2023-04-12T05:48:05.495Z,50.877174
2023-04-12T05:49:05.427Z,50.877155
2023-04-12T05:50:06.878Z,50.877171
2023-04-12T05:51:05.453Z,50.877155
2023-04-12T05:52:05.402Z,50.877178
2023-04-12T05:53:05.364Z,50.877144
2023-04-12T05:54:05.342Z,50.877148
2023-04-12T05:55:05.379Z,50.877174
2023-04-12T05:56:05.387Z,50.877178
2023-04-12T05:57:05.384Z,50.877148
2023-04-12T05:58:05.363Z,50.877140
2023-04-12T05:59:05.322Z,50.877163
2023-04-12T06:00:05.336Z,50.877216
2023-04-12T06:01:05.309Z,50.877197
2023-04-12T06:02:05.302Z,50.877209
2023-04-12T06:03:05.437Z,50.877186
2023-04-12T06:04:05.383Z,50.877171
2023-04-12T06:05:05.492Z,50.877205
2023-04-12T06:06:05.242Z,50.877197
2023-04-12T06:07:06.283Z,50.877193
2023-04-12T06:08:05.239Z,50.877171
2023-04-12T06:09:05.248Z,50.877209
2023-04-12T06:10:05.255Z,50.877224
2023-04-12T06:11:05.219Z,50.877197
2023-04-12T06:12:05.217Z,50.877171
2023-04-12T06:13:06.191Z,50.877144
2023-04-12T06:14:05.193Z,50.877167
2023-04-12T06:15:05.179Z,50.877193
2023-04-12T06:16:05.271Z,50.877216
2023-04-12T06:17:05.167Z,50.877232
2023-04-12T06:18:05.222Z,50.877190
2023-04-12T06:19:05.143Z,50.877163
2023-04-12T06:20:05.149Z,50.877209
2023-04-12T06:21:05.113Z,50.877163
2023-04-12T06:22:05.096Z,50.877155
2023-04-12T06:23:05.157Z,50.877201
2023-04-12T06:24:05.094Z,50.877193
2023-04-12T06:25:06.103Z,50.877129
2023-04-12T06:26:05.082Z,50.877174
2023-04-12T06:27:05.076Z,50.877155
2023-04-12T06:28:05.050Z,50.877174
2023-04-12T06:29:05.024Z,50.877163
2023-04-12T06:30:05.073Z,50.877171
2023-04-12T06:31:05.092Z,50.877190
2023-04-12T06:32:04.990Z,50.877209
2023-04-12T06:33:05.021Z,50.877232
2023-04-12T06:34:04.977Z,50.877213
2023-04-12T06:35:04.998Z,50.877205
2023-04-12T06:36:05.049Z,50.877224
2023-04-12T06:37:04.946Z,50.877205
2023-04-12T06:38:04.947Z,50.877178
2023-04-12T06:39:04.960Z,50.877193
2023-04-12T06:40:04.922Z,50.877205
2023-04-12T06:41:04.925Z,50.877224
2023-04-12T06:42:04.921Z,50.877228
2023-04-12T06:43:04.914Z,50.877178
2023-04-12T06:44:04.881Z,50.877144
2023-04-12T06:45:04.872Z,50.877163
2023-04-12T06:46:04.893Z,50.877190
2023-04-12T06:47:04.938Z,50.877220
2023-04-12T06:48:04.901Z,50.877213
2023-04-12T06:49:04.817Z,50.877182
2023-04-12T06:50:04.826Z,50.877171
2023-04-12T06:51:04.811Z,50.877148
2023-04-12T06:52:04.790Z,50.877151
2023-04-12T06:53:04.814Z,50.877144
2023-04-12T06:54:04.781Z,50.877132
2023-04-12T06:55:04.820Z,50.877163
2023-04-12T06:56:04.810Z,50.877155
2023-04-12T06:57:04.749Z,50.877155
2023-04-12T06:58:04.734Z,50.877163
2023-04-12T06:59:04.725Z,50.877182
2023-04-12T07:00:04.709Z,50.877136
2023-04-12T07:01:04.778Z,50.877159
2023-04-12T07:02:04.736Z,50.877140
2023-04-12T07:03:04.811Z,50.877151
2023-04-12T07:04:04.713Z,50.877159
2023-04-12T07:05:04.701Z,50.877136
2023-04-12T07:06:13.767Z,50.877106
2023-04-12T07:07:06.688Z,50.877140
2023-04-12T07:08:04.661Z,50.877148
2023-04-12T07:09:04.651Z,50.877121
2023-04-12T07:10:04.672Z,50.877079
2023-04-12T07:11:18.095Z,50.877113
2023-04-12T07:12:06.581Z,50.877106
2023-04-12T07:13:04.590Z,50.877136
2023-04-12T07:14:04.569Z,50.877117
2023-04-12T07:15:04.609Z,50.877110
2023-04-12T07:16:04.561Z,50.877110
2023-04-12T07:17:04.578Z,50.877121
2023-04-12T07:18:04.676Z,50.877136
2023-04-12T07:19:04.557Z,50.877140
2023-04-12T07:20:04.505Z,50.877136
2023-04-12T07:21:04.499Z,50.877125
2023-04-12T07:22:04.522Z,50.877125
2023-04-12T07:23:04.476Z,50.877125
2023-04-12T07:24:04.492Z,50.877102
2023-04-12T07:25:05.496Z,50.877129
2023-04-12T07:26:04.447Z,50.877144
2023-04-12T07:27:04.485Z,50.877155
2023-04-12T07:28:04.676Z,50.877121
2023-04-12T07:29:04.434Z,50.877136
2023-04-12T07:30:04.433Z,50.877060
2023-04-12T07:31:04.424Z,50.877079
2023-04-12T07:32:04.411Z,50.877098
2023-04-12T07:33:16.327Z,50.877117
2023-04-12T07:34:06.507Z,50.877064
2023-04-12T07:35:05.374Z,50.877125
2023-04-12T07:36:04.419Z,50.877132
2023-04-12T07:37:04.343Z,50.877129
2023-04-12T07:38:04.346Z,50.877121
2023-04-12T07:39:04.329Z,50.877140
2023-04-12T07:40:04.414Z,50.877163
2023-04-12T07:41:04.327Z,50.877174
2023-04-12T07:42:04.332Z,50.877174
2023-04-12T07:43:04.293Z,50.877167
2023-04-12T07:44:04.315Z,50.877171
2023-04-12T07:45:04.263Z,50.877182
2023-04-12T07:46:04.350Z,50.877163
2023-04-12T07:47:04.240Z,50.877171
2023-04-12T07:48:04.293Z,50.877144
2023-04-12T07:49:04.241Z,50.877148
2023-04-12T07:50:04.266Z,50.877163
2023-04-12T07:51:04.185Z,50.877163
2023-04-12T07:52:04.257Z,50.877171
2023-04-12T07:53:04.178Z,50.877159
2023-04-12T07:54:04.195Z,50.877140
2023-04-12T07:55:04.199Z,50.877151
2023-04-12T07:56:04.162Z,50.877151
2023-04-12T07:57:04.172Z,50.877155
2023-04-12T07:58:04.152Z,50.877174
2023-04-12T07:59:04.170Z,50.877178
2023-04-12T08:00:04.141Z,50.877178
2023-04-12T08:01:04.100Z,50.877178
2023-04-12T08:02:04.211Z,50.877174
2023-04-12T08:03:04.209Z,50.877148
2023-04-12T08:04:04.471Z,50.877159
2023-04-12T08:05:04.082Z,50.877174
2023-04-12T08:06:04.272Z,50.877174
2023-04-12T08:07:04.175Z,50.877151
2023-04-12T08:08:04.020Z,50.877159
2023-04-12T08:09:04.042Z,50.877186
2023-04-12T08:10:04.042Z,50.877213
2023-04-12T08:11:04.041Z,50.877190
2023-04-12T08:12:04.017Z,50.877182
2023-04-12T08:13:03.990Z,50.877167
2023-04-12T08:14:04.010Z,50.877167
2023-04-12T08:15:03.961Z,50.877171
2023-04-12T08:16:03.983Z,50.877197
2023-04-12T08:17:03.957Z,50.877209
2023-04-12T08:18:03.943Z,50.877190
2023-04-12T08:19:03.959Z,50.877197
2023-04-12T08:20:03.924Z,50.877209
2023-04-12T08:21:03.932Z,50.877148
2023-04-12T08:22:03.912Z,50.877174
2023-04-12T08:23:03.910Z,50.877159
2023-04-12T08:24:03.925Z,50.877182
2023-04-12T08:25:03.877Z,50.877182
2023-04-12T08:26:03.940Z,50.877213
2023-04-12T08:27:03.841Z,50.877190
2023-04-12T08:28:03.816Z,50.877182
2023-04-12T08:29:03.818Z,50.877197
2023-04-12T08:30:03.900Z,50.877216
2023-04-12T08:31:03.816Z,50.877232
2023-04-12T08:32:03.838Z,50.877235
2023-04-12T08:33:03.879Z,50.877247
2023-04-12T08:34:03.801Z,50.877239
2023-04-12T08:35:35.724Z,50.877193
2023-04-12T08:36:03.827Z,50.877190
2023-04-12T08:37:03.742Z,50.877174
2023-04-12T08:38:03.839Z,50.877155
2023-04-12T08:39:03.782Z,50.877216
2023-04-12T08:40:03.713Z,50.877232
2023-04-12T08:41:03.714Z,50.877216
2023-04-12T08:42:03.667Z,50.877216
2023-04-12T08:43:03.666Z,50.877190
2023-04-12T08:44:03.693Z,50.877193
2023-04-12T08:45:03.672Z,50.877220
2023-04-12T08:46:03.672Z,50.877220
2023-04-12T08:47:03.714Z,50.877193
2023-04-12T08:48:03.652Z,50.877205
2023-04-12T08:49:03.620Z,50.877159
2023-04-12T08:50:03.649Z,50.877224
2023-04-12T08:51:03.575Z,50.877197
2023-04-12T08:52:03.618Z,50.877186
2023-04-12T08:53:03.608Z,50.877205
2023-04-12T08:54:03.589Z,50.877239
2023-04-12T08:55:03.557Z,50.877235
2023-04-12T08:56:03.541Z,50.877228
2023-04-12T08:57:03.547Z,50.877178
2023-04-12T08:58:03.625Z,50.877224
2023-04-12T08:59:03.556Z,50.877216
2023-04-12T09:00:03.526Z,50.877140
2023-04-12T09:01:03.473Z,50.877144
2023-04-12T09:02:03.602Z,50.877171
2023-04-12T09:03:03.711Z,50.877251
2023-04-12T09:04:04.080Z,50.877224
2023-04-12T09:05:03.660Z,50.877220
2023-04-12T09:06:03.535Z,50.877228
2023-04-12T09:07:03.445Z,50.877220
2023-04-12T09:08:03.437Z,50.877159
2023-04-12T09:09:03.424Z,50.877148
2023-04-12T09:10:03.436Z,50.877151
2023-04-12T09:11:03.393Z,50.877155
2023-04-12T09:12:03.405Z,50.877190
2023-04-12T09:13:03.372Z,50.877178
2023-04-12T09:14:03.477Z,50.877186
2023-04-12T09:15:03.376Z,50.877220
2023-04-12T09:16:03.354Z,50.877209
2023-04-12T09:17:03.513Z,50.877224
2023-04-12T09:18:03.407Z,50.877224
2023-04-12T09:19:03.319Z,50.877235
2023-04-12T09:20:03.338Z,50.877144
2023-04-12T09:21:03.306Z,50.877182
2023-04-12T09:22:03.358Z,50.877228
2023-04-12T09:23:03.347Z,50.877197
2023-04-12T09:24:03.310Z,50.877243
2023-04-12T09:25:03.264Z,50.877220
2023-04-12T09:26:03.252Z,50.877205
2023-04-12T09:27:03.275Z,50.877205
2023-04-12T09:28:03.230Z,50.877178
2023-04-12T09:29:03.318Z,50.877224
2023-04-12T09:30:03.223Z,50.877178
2023-04-12T09:31:04.379Z,50.877178
2023-04-12T09:32:03.276Z,50.877213
2023-04-12T09:33:03.211Z,50.877216
2023-04-12T09:34:03.170Z,50.877193
2023-04-12T09:35:03.179Z,50.877190
2023-04-12T09:36:03.224Z,50.877216
2023-04-12T09:37:03.170Z,50.877247
2023-04-12T09:38:03.167Z,50.877155
2023-04-12T09:39:03.151Z,50.877190
2023-04-12T09:40:03.147Z,50.877232
2023-04-12T09:41:03.094Z,50.877144
2023-04-12T09:42:03.116Z,50.877186
2023-04-12T09:43:03.094Z,50.877178
2023-04-12T09:44:03.081Z,50.877193
2023-04-12T09:45:03.203Z,50.877220
2023-04-12T09:46:03.104Z,50.877167
2023-04-12T09:47:03.020Z,50.877167
2023-04-12T09:48:03.126Z,50.877193
2023-04-12T09:49:03.038Z,50.877216
2023-04-12T09:50:03.041Z,50.877224
2023-04-12T09:51:03.009Z,50.877243
2023-04-12T09:52:02.992Z,50.877274
2023-04-12T09:53:02.993Z,50.877289
2023-04-12T09:54:02.987Z,50.877205
2023-04-12T09:55:02.949Z,50.877132
2023-04-12T09:56:02.955Z,50.877113
2023-04-12T09:57:02.964Z,50.877178
2023-04-12T09:58:02.973Z,50.877174
2023-04-12T09:59:02.964Z,50.877151
2023-04-12T10:00:02.906Z,50.877171
2023-04-12T10:01:02.981Z,50.877144
2023-04-12T10:02:03.027Z,50.877132
2023-04-12T10:03:03.167Z,50.877151
2023-04-12T10:04:04.655Z,50.877129
2023-04-12T10:05:03.099Z,50.877079
2023-04-12T10:06:02.935Z,50.877079
2023-04-12T10:07:02.840Z,50.877155
2023-04-12T10:08:02.844Z,50.877205
2023-04-12T10:09:02.857Z,50.877201
2023-04-12T10:10:02.871Z,50.877178
2023-04-12T10:11:02.810Z,50.877140
2023-04-12T10:12:02.801Z,50.877125
2023-04-12T10:13:02.825Z,50.877079
2023-04-12T10:14:02.754Z,50.877125
2023-04-12T10:15:02.816Z,50.877129
2023-04-12T10:16:02.770Z,50.877098
2023-04-12T10:17:02.750Z,50.877102
2023-04-12T10:18:02.822Z,50.877140
2023-04-12T10:19:02.714Z,50.877167
2023-04-12T10:20:02.726Z,50.877151
2023-04-12T10:21:02.710Z,50.877144
2023-04-12T10:22:02.761Z,50.877117
2023-04-12T10:23:02.699Z,50.877098
2023-04-12T10:24:02.672Z,50.877068
2023-04-12T10:25:02.649Z,50.877110
2023-04-12T10:26:02.694Z,50.877113
2023-04-12T10:27:02.655Z,50.877220
2023-04-12T10:28:02.619Z,50.877174
2023-04-12T10:29:02.653Z,50.877113
2023-04-12T10:30:02.633Z,50.877125
2023-04-12T10:31:02.688Z,50.877113
2023-04-12T10:32:02.663Z,50.877121
2023-04-12T10:33:02.661Z,50.877102
2023-04-12T10:34:02.553Z,50.877094
2023-04-12T10:35:02.568Z,50.877136
2023-04-12T10:36:02.614Z,50.877121
2023-04-12T10:37:02.579Z,50.877129
2023-04-12T10:38:02.574Z,50.877220
2023-04-12T10:39:02.537Z,50.877148
2023-04-12T10:40:02.563Z,50.877144
2023-04-12T10:41:02.522Z,50.877144
2023-04-12T10:42:02.491Z,50.877155
2023-04-12T10:43:02.483Z,50.877148
2023-04-12T10:44:02.487Z,50.877148
2023-04-12T10:45:02.500Z,50.877148
2023-04-12T10:46:02.466Z,50.877140
2023-04-12T10:47:02.516Z,50.877132
2023-04-12T10:48:02.533Z,50.877090
2023-04-12T10:49:02.422Z,50.877090
2023-04-12T10:50:02.469Z,50.877125
2023-04-12T10:51:02.423Z,50.877129
2023-04-12T10:52:02.482Z,50.877125
2023-04-12T10:53:02.399Z,50.877140
2023-04-12T10:54:02.396Z,50.877159
2023-04-12T10:55:02.369Z,50.877174
2023-04-12T10:56:02.351Z,50.877174
2023-04-12T10:57:02.349Z,50.877174
2023-04-12T10:58:02.360Z,50.877167
2023-04-12T10:59:02.626Z,50.877159
2023-04-12T11:00:02.336Z,50.877148
2023-04-12T11:01:02.380Z,50.877151
2023-04-12T11:02:02.621Z,50.877163
2023-04-12T11:03:02.609Z,50.877167
2023-04-12T11:04:02.484Z,50.877178
2023-04-12T11:05:02.388Z,50.877171
2023-04-12T11:06:09.609Z,50.877178
2023-04-12T11:07:04.248Z,50.877174
2023-04-12T11:08:02.253Z,50.877163
2023-04-12T11:09:02.245Z,50.877159
2023-04-12T11:10:02.241Z,50.877159
2023-04-12T11:11:02.277Z,50.877159
2023-04-12T11:12:02.248Z,50.877178
2023-04-12T11:13:02.226Z,50.877171
2023-04-12T11:14:02.172Z,50.877182
2023-04-12T11:15:02.242Z,50.877174
2023-04-12T11:16:02.251Z,50.877182
2023-04-12T11:17:02.253Z,50.877220
2023-04-12T11:18:03.164Z,50.877235
2023-04-12T11:19:02.145Z,50.877201
2023-04-12T11:20:02.326Z,50.877213
2023-04-12T11:21:02.186Z,50.877197
2023-04-12T11:22:02.211Z,50.877197
2023-04-12T11:23:02.081Z,50.877186
2023-04-12T11:24:02.129Z,50.877205